Time;durP1;ratioP1;P1;durP2;ratioP2;P2;SDS_P1;SDS_P2;PMS_P1;PMS_P2;Temp;Humidity;BMP_temperature;BMP_pressure;BME280_temperature;BME280_humidity;BME280_pressure;Samples;Min_cycle;Max_cycle;Signal;HPM_P1;HPM_P2
2023/07/30 00:00:50;;;;;;;10.73;5.27;;;15.60;99.90;;;;;;2611027;54;20392;-74
2023/07/30 00:06:37;;;;;;;14.60;6.13;;;15.40;99.90;;;;;;2611070;54;20482;-72
2023/07/30 00:12:25;;;;;;;7.77;5.20;;;15.40;99.90;;;;;;2610313;54;20153;-74
2023/07/30 00:18:14;;;;;;;10.20;4.93;;;15.30;99.90;;;;;;2612496;39;20508;-72
2023/07/30 00:24:02;;;;;;;6.90;4.87;;;15.50;99.90;;;;;;2611736;54;20380;-73
2023/07/30 00:29:51;;;;;;;7.60;5.10;;;15.20;99.90;;;;;;2614092;54;20390;-73
2023/07/30 00:35:39;;;;;;;8.17;4.90;;;15.30;99.90;;;;;;2613821;54;20379;-72
2023/07/30 00:41:27;;;;;;;9.23;5.47;;;15.10;99.90;;;;;;2613424;54;20138;-72
2023/07/30 00:47:16;;;;;;;8.70;5.50;;;14.90;99.90;;;;;;2613574;54;20479;-73
2023/07/30 00:53:04;;;;;;;10.70;5.20;;;14.60;99.90;;;;;;2614875;39;20799;-72
2023/07/30 00:58:52;;;;;;;10.93;4.10;;;14.60;99.90;;;;;;2615792;54;20394;-72
2023/07/30 01:04:40;;;;;;;13.93;5.07;;;14.40;99.90;;;;;;2616449;54;20491;-73
2023/07/30 01:10:31;;;;;;;11.77;5.40;;;14.30;99.90;;;;;;2616780;54;20150;-72
2023/07/30 01:16:19;;;;;;;12.43;4.70;;;14.30;99.90;;;;;;2614355;54;20507;-73
2023/07/30 01:22:07;;;;;;;10.13;4.57;;;14.30;99.90;;;;;;2615151;54;20402;-72
2023/07/30 01:27:58;;;;;;;8.13;4.47;;;14.30;99.90;;;;;;2613473;54;20242;-74
2023/07/30 01:33:52;;;;;;;9.27;4.77;;;14.50;99.90;;;;;;2614388;39;20786;-74
2023/07/30 01:39:42;;;;;;;10.50;4.90;;;14.20;99.90;;;;;;2614213;54;20411;-75
2023/07/30 01:45:29;;;;;;;7.60;4.53;;;14.30;99.90;;;;;;2614600;54;20391;-76
2023/07/30 01:51:17;;;;;;;9.53;5.10;;;14.10;99.90;;;;;;2612063;54;20150;-74
2023/07/30 01:57:05;;;;;;;7.30;4.93;;;14.00;99.90;;;;;;2612399;54;20182;-74
2023/07/30 02:02:52;;;;;;;6.93;4.80;;;13.80;99.90;;;;;;2612657;54;20139;-73
2023/07/30 02:08:40;;;;;;;8.23;5.37;;;13.80;99.90;;;;;;2612117;54;20154;-74
2023/07/30 02:14:27;;;;;;;7.47;4.80;;;13.90;99.90;;;;;;2612039;54;20118;-74
2023/07/30 02:20:15;;;;;;;6.33;5.13;;;13.70;99.90;;;;;;2612341;54;20121;-74
2023/07/30 02:26:03;;;;;;;6.73;4.77;;;13.80;99.90;;;;;;2612858;54;20157;-75
2023/07/30 02:31:51;;;;;;;8.00;5.70;;;13.70;99.90;;;;;;2613044;39;20525;-73
2023/07/30 02:41:54;;;;;;;9.77;4.80;;;13.80;99.90;;;;;;2612218;54;20398;-73
2023/07/30 02:47:42;;;;;;;11.80;5.20;;;13.70;99.90;;;;;;2612923;39;20806;-73
2023/07/30 02:53:29;;;;;;;14.63;5.50;;;13.60;99.90;;;;;;2614015;39;20445;-73
2023/07/30 02:59:17;;;;;;;11.00;5.30;;;13.60;99.90;;;;;;2613494;54;20276;-73
2023/07/30 03:05:05;;;;;;;8.53;4.83;;;13.50;99.90;;;;;;2614039;54;20139;-74
2023/07/30 03:10:53;;;;;;;7.97;4.43;;;13.30;99.90;;;;;;2613964;54;20503;-74
2023/07/30 03:16:40;;;;;;;9.77;5.57;;;13.30;99.90;;;;;;2613061;54;20123;-77
2023/07/30 03:22:28;;;;;;;9.63;5.27;;;13.30;99.90;;;;;;2613187;54;20608;-72
2023/07/30 03:28:16;;;;;;;9.33;4.47;;;13.20;99.90;;;;;;2611363;54;20130;-75
2023/07/30 03:34:04;;;;;;;17.67;5.07;;;13.40;99.90;;;;;;2610589;54;20142;-75
2023/07/30 03:40:07;;;;;;;11.60;4.50;;;13.50;99.90;;;;;;2610172;39;20580;-74
2023/07/30 03:45:55;;;;;;;7.03;4.87;;;13.40;99.90;;;;;;2610727;54;20477;-72
2023/07/30 03:48:57;;;;;;;15.80;6.30;;;13.30;99.90;;;;;;2609448;54;21587;-72
2023/07/30 03:51:23;;;;;;;17.30;6.83;;;13.30;99.90;;;;;;2610092;46;20332;-73
2023/07/30 03:57:10;;;;;;;10.23;5.53;;;13.20;99.90;;;;;;2611130;54;20135;-76
2023/07/30 04:02:58;;;;;;;11.17;4.80;;;13.50;99.90;;;;;;2610674;54;20134;-78
2023/07/30 04:08:45;;;;;;;11.40;5.90;;;13.30;99.90;;;;;;2610938;54;20158;-76
2023/07/30 04:14:32;;;;;;;10.50;5.20;;;13.30;99.90;;;;;;2611557;54;20372;-77
2023/07/30 04:20:20;;;;;;;12.30;5.10;;;13.70;99.90;;;;;;2614362;54;20341;-76
2023/07/30 04:26:08;;;;;;;12.33;4.47;;;13.80;99.90;;;;;;2614424;54;20235;-75
2023/07/30 04:31:55;;;;;;;7.60;4.80;;;13.90;99.90;;;;;;2611134;54;20229;-77
2023/07/30 04:41:52;;;;;;;5.80;3.13;;;14.20;99.90;;;;;;2612191;54;20516;-76
2023/07/30 04:47:40;;;;;;;8.20;5.03;;;14.50;99.90;;;;;;2611556;54;21435;-74
2023/07/30 04:53:28;;;;;;;8.17;4.50;;;14.70;99.90;;;;;;2610627;54;20158;-77
2023/07/30 04:59:15;;;;;;;10.77;6.03;;;15.00;87.40;;;;;;2611432;54;20141;-77
2023/07/30 05:05:03;;;;;;;8.70;4.60;;;15.10;59.90;;;;;;2611665;39;20554;-77
2023/07/30 05:10:51;;;;;;;12.40;4.83;;;15.30;22.80;;;;;;2610717;54;20403;-77
2023/07/30 05:16:39;;;;;;;14.33;5.40;;;15.50;1.00;;;;;;2610692;54;20135;-74
2023/07/30 05:22:26;;;;;;;8.97;5.47;;;15.50;1.00;;;;;;2611527;54;20239;-75
2023/07/30 05:28:14;;;;;;;16.53;5.10;;;15.60;1.00;;;;;;2611253;54;20174;-76
2023/07/30 05:34:02;;;;;;;13.73;5.20;;;15.70;1.00;;;;;;2611201;54;20126;-76
2023/07/30 05:37:24;;;;;;;9.53;4.43;;;15.70;1.00;;;;;;2610765;54;22499;-76
2023/07/30 05:39:49;;;;;;;7.33;4.57;;;15.70;1.00;;;;;;2610353;47;20688;-76
2023/07/30 05:45:37;;;;;;;11.20;5.27;;;15.70;1.00;;;;;;2611002;54;20126;-74
2023/07/30 05:51:25;;;;;;;8.43;4.50;;;15.90;1.00;;;;;;2611440;54;20167;-74
2023/07/30 05:57:13;;;;;;;6.57;3.40;;;15.90;1.00;;;;;;2612410;54;20396;-73
2023/07/30 06:03:01;;;;;;;10.83;4.40;;;15.90;1.00;;;;;;2611316;46;20158;-76
2023/07/30 06:08:49;;;;;;;11.33;5.10;;;15.90;1.00;;;;;;2608738;54;20379;-76
2023/07/30 06:14:36;;;;;;;13.20;5.00;;;15.90;1.00;;;;;;2614159;54;20138;-76
2023/07/30 06:20:25;;;;;;;9.67;4.60;;;16.00;1.00;;;;;;2617036;54;20123;-72
2023/07/30 06:26:12;;;;;;;8.80;4.33;;;15.90;1.00;;;;;;2615995;39;20761;-76
2023/07/30 06:32:00;;;;;;;6.53;3.67;;;16.00;1.00;;;;;;2616071;54;20256;-73
2023/07/30 06:41:51;;;;;;;4.07;2.67;;;15.80;1.00;;;;;;2616391;39;20486;-74
2023/07/30 06:47:39;;;;;;;9.53;2.93;;;15.80;1.00;;;;;;2615983;54;20395;-73
2023/07/30 06:53:26;;;;;;;4.87;3.17;;;15.80;1.00;;;;;;2616376;54;20207;-73
2023/07/30 06:59:14;;;;;;;11.10;3.97;;;15.80;1.00;;;;;;2615893;54;20162;-75
2023/07/30 07:05:01;;;;;;;4.77;3.00;;;15.80;1.00;;;;;;2615181;39;20531;-75
2023/07/30 07:10:50;;;;;;;10.13;4.17;;;15.90;1.00;;;;;;2615073;54;20254;-76
2023/07/30 07:16:37;;;;;;;12.07;4.90;;;15.90;1.00;;;;;;2615397;54;20407;-74
2023/07/30 07:22:25;;;;;;;13.13;4.07;;;15.90;1.00;;;;;;2615543;54;20114;-73
2023/07/30 07:28:13;;;;;;;5.80;3.53;;;16.10;1.00;;;;;;2614277;54;20214;-74
2023/07/30 07:34:00;;;;;;;6.87;3.73;;;16.20;1.00;;;;;;2613562;54;20640;-74
2023/07/30 07:37:24;;;;;;;6.67;3.67;;;16.20;1.00;;;;;;2611062;54;20499;-74
2023/07/30 07:39:49;;;;;;;7.90;3.43;;;16.30;1.00;;;;;;2609379;54;20166;-76
2023/07/30 07:45:37;;;;;;;5.43;3.50;;;16.30;1.00;;;;;;2612915;54;20151;-73
2023/07/30 07:51:25;;;;;;;7.00;4.30;;;16.70;1.00;;;;;;2612861;54;20126;-75
2023/07/30 07:57:13;;;;;;;5.53;3.77;;;17.10;1.00;;;;;;2614045;39;20204;-74
2023/07/30 08:03:00;;;;;;;5.37;3.80;;;17.50;1.00;;;;;;2611557;54;20226;-74
2023/07/30 08:08:51;;;;;;;8.10;4.67;;;17.40;1.00;;;;;;2615780;54;20146;-72
2023/07/30 08:14:39;;;;;;;9.33;5.50;;;17.30;1.00;;;;;;2616947;54;20440;-73
2023/07/30 08:20:27;;;;;;;12.20;4.53;;;17.10;1.00;;;;;;2616967;39;20801;-72
2023/07/30 08:26:15;;;;;;;13.13;5.40;;;17.40;1.00;;;;;;2616425;54;20154;-72
2023/07/30 08:32:03;;;;;;;6.83;4.33;;;18.10;1.00;;;;;;2616825;54;21009;-72
2023/07/30 08:41:50;;;;;;;9.20;4.40;;;17.90;1.00;;;;;;2616201;54;20503;-72
2023/07/30 08:47:41;;;;;;;8.37;5.27;;;18.40;1.00;;;;;;2616450;54;20436;-72
2023/07/30 08:53:29;;;;;;;8.30;5.03;;;18.80;1.00;;;;;;2616220;54;20387;-71
2023/07/30 08:59:19;;;;;;;9.27;5.27;;;19.60;1.00;;;;;;2615801;54;20411;-72
2023/07/30 09:05:07;;;;;;;10.77;4.80;;;19.50;1.00;;;;;;2616887;39;20854;-73
2023/07/30 09:10:54;;;;;;;9.70;5.03;;;18.70;1.00;;;;;;2617130;54;20134;-73
2023/07/30 09:16:43;;;;;;;8.33;4.80;;;18.80;1.00;;;;;;2617321;54;20540;-71
2023/07/30 09:22:33;;;;;;;10.77;6.20;;;19.70;1.00;;;;;;2617172;54;20159;-72
2023/07/30 09:28:21;;;;;;;7.77;5.50;;;19.30;1.00;;;;;;2617064;54;20382;-74
2023/07/30 09:34:09;;;;;;;10.77;5.63;;;19.40;1.00;;;;;;2616895;54;20122;-72
2023/07/30 09:37:24;;;;;;;8.13;5.77;;;19.80;1.00;;;;;;2616886;54;20423;-73
2023/07/30 09:39:50;;;;;;;7.03;6.13;;;20.20;1.00;;;;;;2615840;47;20700;-71
2023/07/30 09:45:38;;;;;;;19.23;6.00;;;20.10;1.00;;;;;;2615970;39;20525;-72
2023/07/30 09:51:26;;;;;;;14.70;6.70;;;20.90;1.00;;;;;;2616824;39;20785;-73
2023/07/30 09:57:13;;;;;;;9.73;5.70;;;21.80;1.00;;;;;;2615544;54;20133;-73
2023/07/30 10:03:02;;;;;;;6.57;4.93;;;21.50;1.00;;;;;;2615054;31;20611;-73
2023/07/30 10:08:52;;;;;;;7.10;6.27;;;22.10;1.00;;;;;;2614873;54;20363;-74
2023/07/30 10:14:41;;;;;;;6.30;5.47;;;21.30;1.00;;;;;;2614490;54;20985;-75
2023/07/30 10:20:30;;;;;;;15.90;5.93;;;21.20;1.00;;;;;;2612234;54;20351;-71
2023/07/30 10:32:57;;;;;;;7.57;5.60;;;22.30;1.00;;;;;;2615385;39;20912;-75
2023/07/30 10:42:08;;;;;;;6.40;5.90;;;21.90;1.00;;;;;;2615209;39;20746;-75
2023/07/30 10:54:34;;;;;;;6.33;4.60;;;20.00;1.00;;;;;;2614935;54;20351;-76
2023/07/30 11:00:22;;;;;;;5.67;5.17;;;20.20;1.00;;;;;;2613976;54;20423;-75
2023/07/30 11:06:10;;;;;;;6.43;5.57;;;21.20;1.00;;;;;;2614911;54;20367;-74
2023/07/30 11:11:57;;;;;;;7.63;6.00;;;21.30;1.00;;;;;;2614227;54;20653;-74
2023/07/30 11:17:46;;;;;;;8.40;6.50;;;22.00;1.00;;;;;;2615589;54;20191;-74
2023/07/30 11:23:35;;;;;;;7.93;6.10;;;21.20;1.00;;;;;;2613027;54;20503;-74
2023/07/30 11:29:22;;;;;;;6.90;6.13;;;21.20;1.00;;;;;;2611648;54;20492;-75
2023/07/30 11:35:16;;;;;;;6.43;5.80;;;21.50;1.00;;;;;;2610615;54;20135;-74
2023/07/30 11:44:34;;;;;;;8.17;6.27;;;21.00;1.00;;;;;;2612306;54;20375;-74
2023/07/30 11:50:22;;;;;;;8.23;5.43;;;21.10;1.00;;;;;;2611469;54;20403;-74
2023/07/30 11:56:20;;;;;;;7.20;5.97;;;22.50;1.00;;;;;;2611524;54;20127;-73
2023/07/30 12:02:07;;;;;;;6.17;5.60;;;22.30;1.00;;;;;;2611848;54;20484;-74
2023/07/30 12:07:55;;;;;;;7.03;6.33;;;22.40;1.00;;;;;;2613010;54;20407;-74
2023/07/30 12:13:47;;;;;;;6.07;5.47;;;22.90;1.00;;;;;;2614555;54;20114;-74
2023/07/30 12:19:36;;;;;;;5.53;5.10;;;22.30;1.00;;;;;;2614243;54;20490;-74
2023/07/30 12:25:24;;;;;;;6.03;5.57;;;22.40;1.00;;;;;;2614861;39;20458;-72
2023/07/30 12:31:12;;;;;;;7.27;6.50;;;23.70;1.00;;;;;;2614361;54;20126;-70
2023/07/30 12:36:59;;;;;;;6.83;6.30;;;22.30;1.00;;;;;;2614989;54;20150;-70
2023/07/30 12:39:55;;;;;;;6.03;5.73;;;23.20;1.00;;;;;;2615202;54;20419;-71
2023/07/30 12:42:20;;;;;;;7.53;6.63;;;22.80;1.00;;;;;;2615108;54;20153;-70
2023/07/30 12:48:08;;;;;;;7.43;7.00;;;23.40;1.00;;;;;;2614665;54;20123;-75
2023/07/30 12:53:56;;;;;;;6.97;6.50;;;22.10;1.00;;;;;;2612664;54;20146;-73
2023/07/30 12:59:43;;;;;;;7.23;6.53;;;23.10;1.00;;;;;;2615293;54;20122;-73
2023/07/30 13:05:31;;;;;;;6.40;6.00;;;21.90;1.00;;;;;;2615901;54;20127;-74
2023/07/30 13:11:19;;;;;;;7.03;6.63;;;21.70;1.00;;;;;;2614535;54;20130;-74
2023/07/30 13:17:06;;;;;;;6.30;6.00;;;21.50;1.00;;;;;;2615590;54;20134;-74
2023/07/30 13:22:54;;;;;;;6.73;6.33;;;21.60;1.00;;;;;;2614682;54;20129;-74
2023/07/30 13:28:41;;;;;;;6.63;6.10;;;21.90;1.00;;;;;;2615581;46;20158;-73
2023/07/30 13:34:29;;;;;;;7.40;7.00;;;22.20;1.00;;;;;;2615818;54;20174;-74
2023/07/30 13:44:26;;;;;;;6.23;5.83;;;22.20;1.00;;;;;;2611252;54;20363;-74
2023/07/30 13:50:13;;;;;;;7.40;6.80;;;22.50;1.00;;;;;;2615127;54;20444;-74
2023/07/30 13:56:01;;;;;;;8.03;7.17;;;22.80;1.00;;;;;;2614744;54;20122;-74
2023/07/30 14:01:49;;;;;;;7.47;7.00;;;22.20;1.00;;;;;;2613900;54;20236;-73
2023/07/30 14:07:37;;;;;;;6.73;6.33;;;22.20;1.00;;;;;;2614085;54;20126;-73
2023/07/30 14:13:24;;;;;;;6.23;5.90;;;21.90;1.00;;;;;;2613868;39;20634;-73
2023/07/30 14:19:12;;;;;;;7.23;6.20;;;22.00;1.00;;;;;;2614951;54;20259;-74
2023/07/30 14:25:00;;;;;;;6.80;6.40;;;21.30;1.00;;;;;;2614808;54;20122;-73
2023/07/30 14:30:47;;;;;;;6.93;6.43;;;20.90;1.00;;;;;;2614467;54;20150;-73
2023/07/30 14:36:35;;;;;;;6.60;6.10;;;20.70;1.00;;;;;;2614188;39;20383;-73
2023/07/30 14:39:55;;;;;;;6.60;6.20;;;20.70;1.00;;;;;;2613555;54;20408;-73
2023/07/30 14:42:20;;;;;;;7.83;7.10;;;21.00;1.00;;;;;;2614399;54;20158;-73
2023/07/30 14:48:09;;;;;;;7.00;6.60;;;21.40;1.00;;;;;;2613758;54;20122;-73
2023/07/30 14:53:57;;;;;;;7.83;7.13;;;22.60;1.00;;;;;;2615044;54;20387;-73
2023/07/30 14:59:45;;;;;;;7.80;7.20;;;22.00;1.00;;;;;;2614827;54;20134;-73
2023/07/30 15:05:33;;;;;;;7.10;6.70;;;21.70;1.00;;;;;;2614886;54;20122;-73
2023/07/30 15:11:21;;;;;;;7.37;6.80;;;21.20;1.00;;;;;;2614233;54;20407;-73
2023/07/30 15:17:08;;;;;;;6.60;6.10;;;21.00;1.00;;;;;;2615052;54;20165;-73
2023/07/30 15:22:56;;;;;;;6.97;6.47;;;20.70;1.00;;;;;;2614850;54;20236;-74
2023/07/30 15:28:44;;;;;;;7.87;7.03;;;21.00;1.00;;;;;;2614194;54;20122;-73
2023/07/30 15:34:31;;;;;;;7.83;7.33;;;21.90;1.00;;;;;;2613956;54;20162;-73
2023/07/30 15:44:28;;;;;;;14.00;6.80;;;21.60;1.00;;;;;;2614374;54;20383;-72
2023/07/30 15:47:13;;;;;;;7.23;6.67;;;21.60;1.00;;;;;;2614193;54;20408;-74
2023/07/30 15:49:39;;;;;;;9.40;8.00;;;21.60;1.00;;;;;;2613136;54;20400;-74
2023/07/30 15:55:26;;;;;;;9.07;7.20;;;21.50;1.00;;;;;;2613427;54;20653;-73
2023/07/30 16:01:14;;;;;;;7.53;6.43;;;21.90;1.00;;;;;;2611637;54;20224;-73
2023/07/30 16:07:03;;;;;;;7.43;6.83;;;21.50;1.00;;;;;;2613868;54;20134;-74
2023/07/30 16:12:50;;;;;;;8.77;7.43;;;21.50;1.00;;;;;;2613840;54;20411;-73
2023/07/30 16:18:41;;;;;;;6.80;6.40;;;21.50;1.00;;;;;;2611243;54;20134;-74
2023/07/30 16:24:29;;;;;;;7.27;6.67;;;21.70;1.00;;;;;;2614443;54;20955;-74
2023/07/30 16:30:16;;;;;;;8.00;7.27;;;22.10;1.00;;;;;;2613120;39;20559;-72
2023/07/30 16:36:06;;;;;;;7.70;7.30;;;21.80;1.00;;;;;;2614447;54;20139;-73
2023/07/30 16:41:54;;;;;;;7.90;7.30;;;21.80;1.00;;;;;;2614288;54;20443;-69
2023/07/30 16:47:42;;;;;;;7.60;6.90;;;21.80;1.00;;;;;;2613752;54;20137;-70
2023/07/30 16:53:29;;;;;;;7.70;7.20;;;21.70;1.00;;;;;;2612784;54;20155;-71
2023/07/30 16:59:17;;;;;;;8.30;7.80;;;21.70;1.00;;;;;;2613144;54;20158;-70
2023/07/30 17:05:05;;;;;;;7.87;7.47;;;21.70;1.00;;;;;;2613333;54;20135;-70
2023/07/30 17:10:54;;;;;;;8.20;7.60;;;21.60;1.00;;;;;;2614439;54;20411;-69
2023/07/30 17:16:43;;;;;;;8.37;7.37;;;21.60;1.00;;;;;;2614452;54;20352;-69
2023/07/30 17:22:31;;;;;;;8.43;7.83;;;21.50;1.00;;;;;;2613945;54;20371;-70
2023/07/30 17:28:18;;;;;;;8.03;7.53;;;21.50;1.00;;;;;;2614820;54;20215;-71
2023/07/30 17:34:06;;;;;;;8.33;7.87;;;21.50;1.00;;;;;;2614637;54;20418;-71
2023/07/30 17:39:54;;;;;;;8.00;7.40;;;21.50;1.00;;;;;;2614704;54;20151;-69
2023/07/30 17:45:41;;;;;;;7.50;7.10;;;21.50;1.00;;;;;;2615030;54;20150;-72
2023/07/30 17:51:29;;;;;;;9.20;8.50;;;21.30;1.00;;;;;;2614466;54;20790;-74
2023/07/30 17:57:17;;;;;;;8.80;8.20;;;21.30;1.00;;;;;;2614055;46;20154;-74
2023/07/30 18:03:06;;;;;;;11.50;8.67;;;21.20;1.00;;;;;;2615188;54;20126;-74
2023/07/30 18:08:56;;;;;;;9.00;8.40;;;21.00;1.00;;;;;;2614414;54;20371;-73
2023/07/30 18:14:43;;;;;;;16.40;9.13;;;20.90;1.00;;;;;;2614681;54;20467;-73
2023/07/30 18:20:31;;;;;;;8.20;7.60;;;20.60;1.00;;;;;;2611874;54;20138;-73
2023/07/30 18:26:19;;;;;;;8.07;7.67;;;20.40;1.00;;;;;;2614572;54;20386;-73
2023/07/30 18:32:08;;;;;;;8.07;6.90;;;20.10;1.00;;;;;;2613581;54;20143;-73
2023/07/30 18:37:56;;;;;;;7.73;6.93;;;19.40;1.00;;;;;;2610985;46;22344;-72
2023/07/30 18:47:09;;;;;;;6.70;3.53;;;17.80;1.00;;;;;;2611572;54;20427;-75
2023/07/30 18:52:57;;;;;;;4.27;2.93;;;16.70;1.00;;;;;;2612609;54;20967;-74
2023/07/30 18:58:44;;;;;;;3.10;2.20;;;16.50;1.00;;;;;;2610377;39;20481;-73
2023/07/30 19:04:32;;;;;;;5.80;2.87;;;16.20;1.00;;;;;;2612069;54;20145;-73
2023/07/30 19:10:20;;;;;;;6.70;3.40;;;16.20;9.80;;;;;;2610585;54;20162;-72
2023/07/30 19:16:08;;;;;;;6.27;3.33;;;16.10;23.50;;;;;;2614471;54;20134;-72
2023/07/30 19:21:56;;;;;;;7.53;3.60;;;16.00;69.70;;;;;;2613558;54;20917;-72
2023/07/30 19:27:43;;;;;;;7.50;3.40;;;15.90;99.90;;;;;;2614612;54;20131;-72
2023/07/30 19:33:31;;;;;;;6.77;3.80;;;15.90;99.90;;;;;;2613266;54;20146;-72
2023/07/30 19:39:19;;;;;;;5.97;3.20;;;15.90;99.90;;;;;;2614072;54;20151;-72
2023/07/30 19:45:23;;;;;;;8.90;3.43;;;15.80;99.90;;;;;;2612928;54;20147;-73
2023/07/30 19:51:11;;;;;;;8.23;2.50;;;15.80;99.90;;;;;;2612179;39;20701;-72
2023/07/30 19:56:58;;;;;;;5.97;2.73;;;15.90;99.90;;;;;;2612091;54;20139;-74
2023/07/30 20:02:46;;;;;;;7.40;3.93;;;16.00;99.90;;;;;;2613151;54;20669;-75
2023/07/30 20:08:35;;;;;;;4.10;2.53;;;15.90;99.90;;;;;;2612912;54;20499;-77
2023/07/30 20:14:22;;;;;;;6.60;3.00;;;15.80;99.90;;;;;;2612585;54;20535;-76
2023/07/30 20:20:10;;;;;;;5.67;3.20;;;15.70;99.90;;;;;;2614193;54;20242;-76
2023/07/30 20:25:58;;;;;;;5.97;3.33;;;15.70;99.90;;;;;;2611962;54;20367;-78
2023/07/30 20:31:45;;;;;;;3.97;3.23;;;15.60;99.90;;;;;;2610376;54;20242;-76
2023/07/30 20:37:33;;;;;;;3.60;1.90;;;15.40;99.90;;;;;;2611804;54;20143;-76
2023/07/30 20:47:09;;;;;;;4.70;2.70;;;15.20;99.90;;;;;;2611455;54;20448;-75
2023/07/30 20:52:56;;;;;;;3.33;2.20;;;15.20;99.90;;;;;;2612024;54;20419;-74
2023/07/30 20:58:44;;;;;;;3.60;3.00;;;15.20;99.90;;;;;;2610867;54;20685;-75
2023/07/30 21:04:31;;;;;;;3.23;2.40;;;15.20;99.90;;;;;;2613906;39;21073;-75
2023/07/30 21:10:19;;;;;;;3.70;2.70;;;15.20;99.90;;;;;;2611515;54;20171;-75
2023/07/30 21:16:07;;;;;;;3.70;2.67;;;15.20;99.90;;;;;;2612142;54;20165;-74
2023/07/30 21:21:55;;;;;;;6.13;3.20;;;15.30;99.90;;;;;;2613701;54;20125;-74
2023/07/30 21:27:46;;;;;;;8.87;4.70;;;15.30;99.90;;;;;;2612419;54;20122;-73
2023/07/30 21:33:35;;;;;;;6.30;3.60;;;15.40;99.90;;;;;;2611304;54;20371;-74
2023/07/30 21:39:23;;;;;;;11.83;5.70;;;15.40;99.90;;;;;;2610516;54;20575;-73
2023/07/30 21:42:40;;;;;;;6.67;4.70;;;15.40;99.90;;;;;;2610157;54;20412;-74
2023/07/30 21:45:06;;;;;;;7.97;4.73;;;15.40;99.90;;;;;;2611305;54;20154;-75
2023/07/30 21:51:04;;;;;;;6.77;4.80;;;15.40;99.90;;;;;;2610924;54;20402;-74
2023/07/30 21:56:51;;;;;;;8.37;6.03;;;15.40;99.90;;;;;;2609110;54;20506;-75
2023/07/30 22:02:39;;;;;;;6.63;5.10;;;15.40;99.90;;;;;;2610602;54;20126;-73
2023/07/30 22:08:27;;;;;;;8.50;5.20;;;15.40;99.90;;;;;;2611158;54;20118;-72
2023/07/30 22:14:15;;;;;;;7.73;4.43;;;15.40;99.90;;;;;;2609584;54;20648;-74
2023/07/30 22:20:03;;;;;;;6.70;4.10;;;15.40;99.90;;;;;;2610919;39;20651;-74
2023/07/30 22:25:53;;;;;;;7.60;3.90;;;15.50;99.90;;;;;;2613133;54;20383;-75
2023/07/30 22:31:41;;;;;;;5.87;4.50;;;15.50;99.90;;;;;;2611769;54;20378;-76
2023/07/30 22:37:29;;;;;;;5.47;3.80;;;15.50;99.90;;;;;;2613291;54;20142;-76
2023/07/30 22:47:09;;;;;;;6.40;3.30;;;15.60;99.90;;;;;;2614516;54;20384;-76
2023/07/30 22:52:57;;;;;;;6.30;4.60;;;15.60;99.90;;;;;;2614428;54;20511;-74
2023/07/30 22:58:46;;;;;;;6.10;3.47;;;15.60;99.90;;;;;;2611616;54;20383;-77
2023/07/30 23:04:33;;;;;;;9.83;5.00;;;15.50;99.90;;;;;;2611842;54;20114;-76
2023/07/30 23:10:21;;;;;;;7.53;4.20;;;15.60;99.90;;;;;;2612178;54;20121;-75
2023/07/30 23:16:09;;;;;;;6.10;3.33;;;15.50;99.90;;;;;;2611709;54;20340;-75
2023/07/30 23:21:59;;;;;;;4.60;3.30;;;15.50;99.90;;;;;;2611165;54;20134;-75
2023/07/30 23:27:47;;;;;;;7.20;3.93;;;15.60;99.90;;;;;;2612300;54;20391;-75
2023/07/30 23:33:35;;;;;;;5.17;4.03;;;16.50;99.90;;;;;;2610525;46;20149;-75
2023/07/30 23:39:23;;;;;;;7.20;4.70;;;16.60;99.90;;;;;;2610693;54;20166;-75
2023/07/30 23:42:40;;;;;;;6.07;4.50;;;16.60;99.90;;;;;;2611271;54;20403;-76
2023/07/30 23:45:07;;;;;;;8.23;4.43;;;16.60;99.90;;;;;;2610584;46;20197;-75
2023/07/30 23:50:54;;;;;;;6.57;4.73;;;16.60;99.90;;;;;;2610868;54;20507;-75
2023/07/30 23:56:42;;;;;;;6.40;4.80;;;16.60;99.90;;;;;;2611472;54;20258;-75
